sensor_id;sensor_type;location;lat;lon;timestamp;temperature;humidity
51902;DHT22;37929;53.218;6.548;2022-12-26T00:01:44;8.30;99.90
51902;DHT22;37929;53.218;6.548;2022-12-26T00:04:10;8.30;99.90
51902;DHT22;37929;53.218;6.548;2022-12-26T00:06:35;8.20;99.90
51902;DHT22;37929;53.218;6.548;2022-12-26T00:09:03;8.30;99.90
51902;DHT22;37929;53.218;6.548;2022-12-26T00:11:30;8.30;99.90
51902;DHT22;37929;53.218;6.548;2022-12-26T00:13:58;8.20;99.90
51902;DHT22;37929;53.218;6.548;2022-12-26T00:16:24;8.20;99.90
51902;DHT22;37929;53.218;6.548;2022-12-26T00:18:51;8.30;99.90
51902;DHT22;37929;53.218;6.548;2022-12-26T00:21:17;8.30;99.90
51902;DHT22;37929;53.218;6.548;2022-12-26T00:23:45;8.30;99.90
51902;DHT22;37929;53.218;6.548;2022-12-26T00:26:14;8.30;99.90
51902;DHT22;37929;53.218;6.548;2022-12-26T00:28:40;8.30;99.90
51902;DHT22;37929;53.218;6.548;2022-12-26T00:31:09;8.30;99.90
51902;DHT22;37929;53.218;6.548;2022-12-26T00:33:36;8.30;99.90
51902;DHT22;37929;53.218;6.548;2022-12-26T00:36:04;8.30;99.90
51902;DHT22;37929;53.218;6.548;2022-12-26T00:38:36;8.30;99.90
51902;DHT22;37929;53.218;6.548;2022-12-26T00:41:03;8.30;99.90
51902;DHT22;37929;53.218;6.548;2022-12-26T00:43:29;8.30;99.90
51902;DHT22;37929;53.218;6.548;2022-12-26T00:45:55;8.30;99.90
51902;DHT22;37929;53.218;6.548;2022-12-26T00:48:21;8.30;99.90
51902;DHT22;37929;53.218;6.548;2022-12-26T00:50:47;8.30;99.90
51902;DHT22;37929;53.218;6.548;2022-12-26T00:53:13;8.30;99.90
51902;DHT22;37929;53.218;6.548;2022-12-26T00:55:39;8.30;99.90
51902;DHT22;37929;53.218;6.548;2022-12-26T00:58:05;7.90;99.90
51902;DHT22;37929;53.218;6.548;2022-12-26T01:00:31;8.30;99.90
51902;DHT22;37929;53.218;6.548;2022-12-26T01:02:57;8.30;99.90
51902;DHT22;37929;53.218;6.548;2022-12-26T01:05:22;8.40;99.90
51902;DHT22;37929;53.218;6.548;2022-12-26T01:07:48;8.30;99.90
51902;DHT22;37929;53.218;6.548;2022-12-26T01:10:14;8.30;99.90
51902;DHT22;37929;53.218;6.548;2022-12-26T01:12:40;8.30;99.90
51902;DHT22;37929;53.218;6.548;2022-12-26T01:15:06;8.30;99.90
51902;DHT22;37929;53.218;6.548;2022-12-26T01:17:32;8.30;99.90
51902;DHT22;37929;53.218;6.548;2022-12-26T01:19:58;8.30;99.90
51902;DHT22;37929;53.218;6.548;2022-12-26T01:22:25;8.30;99.90
51902;DHT22;37929;53.218;6.548;2022-12-26T01:24:55;8.30;99.90
51902;DHT22;37929;53.218;6.548;2022-12-26T01:27:22;8.30;99.90
51902;DHT22;37929;53.218;6.548;2022-12-26T01:29:49;8.30;99.90
51902;DHT22;37929;53.218;6.548;2022-12-26T01:32:15;8.30;99.90
51902;DHT22;37929;53.218;6.548;2022-12-26T01:34:41;8.30;99.90
51902;DHT22;37929;53.218;6.548;2022-12-26T01:37:06;8.30;99.90
51902;DHT22;37929;53.218;6.548;2022-12-26T01:39:32;8.30;99.90
51902;DHT22;37929;53.218;6.548;2022-12-26T01:41:58;8.30;99.90
51902;DHT22;37929;53.218;6.548;2022-12-26T01:45:00;8.30;99.90
51902;DHT22;37929;53.218;6.548;2022-12-26T01:47:42;8.30;99.90
51902;DHT22;37929;53.218;6.548;2022-12-26T01:50:31;8.30;99.90
51902;DHT22;37929;53.218;6.548;2022-12-26T01:53:13;8.30;99.90
51902;DHT22;37929;53.218;6.548;2022-12-26T01:55:43;8.30;99.90
51902;DHT22;37929;53.218;6.548;2022-12-26T01:58:15;8.30;99.90
51902;DHT22;37929;53.218;6.548;2022-12-26T02:00:44;8.30;99.90
51902;DHT22;37929;53.218;6.548;2022-12-26T02:03:10;8.30;99.90
51902;DHT22;37929;53.218;6.548;2022-12-26T02:05:56;8.30;99.90
51902;DHT22;37929;53.218;6.548;2022-12-26T02:08:28;8.30;99.90
51902;DHT22;37929;53.218;6.548;2022-12-26T02:13:49;8.30;99.90
51902;DHT22;37929;53.218;6.548;2022-12-26T02:16:17;8.30;99.90
51902;DHT22;37929;53.218;6.548;2022-12-26T02:18:44;8.30;99.90
51902;DHT22;37929;53.218;6.548;2022-12-26T02:21:44;8.30;99.90
51902;DHT22;37929;53.218;6.548;2022-12-26T02:38:24;8.30;99.90
51902;DHT22;37929;53.218;6.548;2022-12-26T02:43:32;8.30;99.90
51902;DHT22;37929;53.218;6.548;2022-12-26T02:46:20;8.30;99.90
51902;DHT22;37929;53.218;6.548;2022-12-26T02:55:03;8.30;99.90
51902;DHT22;37929;53.218;6.548;2022-12-26T02:58:15;8.30;99.90
51902;DHT22;37929;53.218;6.548;2022-12-26T03:01:05;8.30;99.90
51902;DHT22;37929;53.218;6.548;2022-12-26T03:03:52;8.30;99.90
51902;DHT22;37929;53.218;6.548;2022-12-26T03:06:38;8.30;99.90
51902;DHT22;37929;53.218;6.548;2022-12-26T03:09:28;8.30;99.90
51902;DHT22;37929;53.218;6.548;2022-12-26T03:12:35;8.30;99.90
51902;DHT22;37929;53.218;6.548;2022-12-26T03:15:25;8.40;99.90
51902;DHT22;37929;53.218;6.548;2022-12-26T03:18:00;8.40;99.90
51902;DHT22;37929;53.218;6.548;2022-12-26T03:20:28;8.40;99.90
51902;DHT22;37929;53.218;6.548;2022-12-26T03:26:32;8.40;99.90
51902;DHT22;37929;53.218;6.548;2022-12-26T03:28:46;8.40;99.90
51902;DHT22;37929;53.218;6.548;2022-12-26T03:31:13;8.50;99.90
51902;DHT22;37929;53.218;6.548;2022-12-26T03:33:43;8.50;99.90
51902;DHT22;37929;53.218;6.548;2022-12-26T03:42:18;8.50;99.90
51902;DHT22;37929;53.218;6.548;2022-12-26T03:45:14;8.50;99.90
51902;DHT22;37929;53.218;6.548;2022-12-26T03:51:21;8.60;99.90
51902;DHT22;37929;53.218;6.548;2022-12-26T03:54:51;8.60;99.90
51902;DHT22;37929;53.218;6.548;2022-12-26T03:57:46;8.60;99.90
51902;DHT22;37929;53.218;6.548;2022-12-26T04:00:33;8.70;99.90
51902;DHT22;37929;53.218;6.548;2022-12-26T04:03:21;8.60;99.90
51902;DHT22;37929;53.218;6.548;2022-12-26T04:06:15;8.70;99.90
51902;DHT22;37929;53.218;6.548;2022-12-26T04:09:11;8.70;99.90
51902;DHT22;37929;53.218;6.548;2022-12-26T04:11:58;8.70;99.90
51902;DHT22;37929;53.218;6.548;2022-12-26T04:17:54;8.70;99.90
51902;DHT22;37929;53.218;6.548;2022-12-26T04:24:02;8.70;99.90
51902;DHT22;37929;53.218;6.548;2022-12-26T04:29:14;8.80;99.90
51902;DHT22;37929;53.218;6.548;2022-12-26T04:32:12;8.80;99.90
51902;DHT22;37929;53.218;6.548;2022-12-26T04:37:54;8.80;99.90
51902;DHT22;37929;53.218;6.548;2022-12-26T04:40:44;8.70;99.90
51902;DHT22;37929;53.218;6.548;2022-12-26T04:43:31;8.80;99.90
51902;DHT22;37929;53.218;6.548;2022-12-26T04:46:18;8.80;99.90
51902;DHT22;37929;53.218;6.548;2022-12-26T04:48:46;8.80;99.90
51902;DHT22;37929;53.218;6.548;2022-12-26T04:51:31;8.70;99.90
51902;DHT22;37929;53.218;6.548;2022-12-26T04:53:57;8.80;99.90
51902;DHT22;37929;53.218;6.548;2022-12-26T04:56:22;8.80;99.90
51902;DHT22;37929;53.218;6.548;2022-12-26T04:58:49;8.70;99.90
51902;DHT22;37929;53.218;6.548;2022-12-26T05:01:15;8.80;99.90
51902;DHT22;37929;53.218;6.548;2022-12-26T05:03:59;8.80;99.90
51902;DHT22;37929;53.218;6.548;2022-12-26T05:06:43;8.80;99.90
51902;DHT22;37929;53.218;6.548;2022-12-26T05:09:28;8.80;99.90
51902;DHT22;37929;53.218;6.548;2022-12-26T05:12:04;8.80;99.90
51902;DHT22;37929;53.218;6.548;2022-12-26T05:14:30;8.80;99.90
51902;DHT22;37929;53.218;6.548;2022-12-26T05:16:59;8.80;99.90
51902;DHT22;37929;53.218;6.548;2022-12-26T05:19:44;8.80;99.90
51902;DHT22;37929;53.218;6.548;2022-12-26T05:22:31;8.80;99.90
51902;DHT22;37929;53.218;6.548;2022-12-26T05:25:20;8.80;99.90
51902;DHT22;37929;53.218;6.548;2022-12-26T05:28:09;8.80;99.90
51902;DHT22;37929;53.218;6.548;2022-12-26T05:30:54;8.70;99.90
51902;DHT22;37929;53.218;6.548;2022-12-26T05:33:19;8.70;99.90
51902;DHT22;37929;53.218;6.548;2022-12-26T05:36:04;8.70;99.90
51902;DHT22;37929;53.218;6.548;2022-12-26T05:38:29;8.70;99.90
51902;DHT22;37929;53.218;6.548;2022-12-26T05:40:55;8.70;99.90
51902;DHT22;37929;53.218;6.548;2022-12-26T05:43:21;8.70;99.90
51902;DHT22;37929;53.218;6.548;2022-12-26T05:45:47;8.70;99.90
51902;DHT22;37929;53.218;6.548;2022-12-26T05:48:12;8.70;99.90
51902;DHT22;37929;53.218;6.548;2022-12-26T05:50:38;8.70;99.90
51902;DHT22;37929;53.218;6.548;2022-12-26T05:53:04;8.70;99.90
51902;DHT22;37929;53.218;6.548;2022-12-26T05:55:30;8.70;99.90
51902;DHT22;37929;53.218;6.548;2022-12-26T05:57:57;9.10;99.90
51902;DHT22;37929;53.218;6.548;2022-12-26T06:00:24;8.70;99.90
51902;DHT22;37929;53.218;6.548;2022-12-26T06:02:49;8.60;99.90
51902;DHT22;37929;53.218;6.548;2022-12-26T06:05:16;8.70;99.90
51902;DHT22;37929;53.218;6.548;2022-12-26T06:07:42;8.60;99.90
51902;DHT22;37929;53.218;6.548;2022-12-26T06:10:08;8.60;99.90
51902;DHT22;37929;53.218;6.548;2022-12-26T06:12:34;8.60;99.90
51902;DHT22;37929;53.218;6.548;2022-12-26T06:15:00;8.60;99.90
51902;DHT22;37929;53.218;6.548;2022-12-26T06:17:26;8.60;99.90
51902;DHT22;37929;53.218;6.548;2022-12-26T06:19:52;8.60;99.90
51902;DHT22;37929;53.218;6.548;2022-12-26T06:22:20;8.60;99.90
51902;DHT22;37929;53.218;6.548;2022-12-26T06:24:46;8.60;99.90
51902;DHT22;37929;53.218;6.548;2022-12-26T06:27:11;8.70;99.90
51902;DHT22;37929;53.218;6.548;2022-12-26T06:29:37;8.70;99.90
51902;DHT22;37929;53.218;6.548;2022-12-26T06:32:03;8.70;99.90
51902;DHT22;37929;53.218;6.548;2022-12-26T06:34:29;8.70;99.90
51902;DHT22;37929;53.218;6.548;2022-12-26T06:36:55;8.70;99.90
51902;DHT22;37929;53.218;6.548;2022-12-26T06:39:22;8.70;99.90
51902;DHT22;37929;53.218;6.548;2022-12-26T06:41:47;8.70;99.90
51902;DHT22;37929;53.218;6.548;2022-12-26T06:44:13;8.70;99.90
51902;DHT22;37929;53.218;6.548;2022-12-26T06:46:39;8.70;99.90
51902;DHT22;37929;53.218;6.548;2022-12-26T06:49:05;8.70;99.90
51902;DHT22;37929;53.218;6.548;2022-12-26T06:51:31;8.70;99.90
51902;DHT22;37929;53.218;6.548;2022-12-26T06:53:59;8.70;99.90
51902;DHT22;37929;53.218;6.548;2022-12-26T06:56:27;8.90;99.90
51902;DHT22;37929;53.218;6.548;2022-12-26T06:58:55;8.70;99.90
51902;DHT22;37929;53.218;6.548;2022-12-26T07:01:21;8.70;99.90
51902;DHT22;37929;53.218;6.548;2022-12-26T07:03:47;8.80;99.90
51902;DHT22;37929;53.218;6.548;2022-12-26T07:06:20;8.80;99.90
51902;DHT22;37929;53.218;6.548;2022-12-26T07:08:46;8.80;99.90
51902;DHT22;37929;53.218;6.548;2022-12-26T07:11:19;8.80;99.90
51902;DHT22;37929;53.218;6.548;2022-12-26T07:13:45;8.80;99.90
51902;DHT22;37929;53.218;6.548;2022-12-26T07:16:11;8.80;99.90
51902;DHT22;37929;53.218;6.548;2022-12-26T07:18:37;8.80;99.90
51902;DHT22;37929;53.218;6.548;2022-12-26T07:21:04;8.90;99.90
51902;DHT22;37929;53.218;6.548;2022-12-26T07:23:30;8.90;99.90
51902;DHT22;37929;53.218;6.548;2022-12-26T07:25:56;8.90;99.90
51902;DHT22;37929;53.218;6.548;2022-12-26T07:28:22;9.40;99.90
51902;DHT22;37929;53.218;6.548;2022-12-26T07:30:48;8.90;99.90
51902;DHT22;37929;53.218;6.548;2022-12-26T07:33:14;8.90;99.90
51902;DHT22;37929;53.218;6.548;2022-12-26T07:35:40;8.90;99.90
51902;DHT22;37929;53.218;6.548;2022-12-26T07:38:06;8.90;99.90
51902;DHT22;37929;53.218;6.548;2022-12-26T07:40:32;8.90;99.90
51902;DHT22;37929;53.218;6.548;2022-12-26T07:42:58;8.90;99.90
51902;DHT22;37929;53.218;6.548;2022-12-26T07:45:24;9.00;99.90
51902;DHT22;37929;53.218;6.548;2022-12-26T07:47:56;8.90;99.90
51902;DHT22;37929;53.218;6.548;2022-12-26T07:50:26;8.90;99.90
51902;DHT22;37929;53.218;6.548;2022-12-26T07:52:52;8.90;99.90
51902;DHT22;37929;53.218;6.548;2022-12-26T07:55:18;8.90;99.90
51902;DHT22;37929;53.218;6.548;2022-12-26T07:57:44;8.90;99.90
51902;DHT22;37929;53.218;6.548;2022-12-26T08:00:13;8.90;99.90
51902;DHT22;37929;53.218;6.548;2022-12-26T08:02:42;8.80;99.90
51902;DHT22;37929;53.218;6.548;2022-12-26T08:05:08;8.80;99.90
51902;DHT22;37929;53.218;6.548;2022-12-26T08:07:34;8.80;99.90
51902;DHT22;37929;53.218;6.548;2022-12-26T08:10:00;8.80;99.90
51902;DHT22;37929;53.218;6.548;2022-12-26T08:12:25;8.80;99.90
51902;DHT22;37929;53.218;6.548;2022-12-26T08:14:51;8.90;99.90
51902;DHT22;37929;53.218;6.548;2022-12-26T08:17:17;8.90;99.90
51902;DHT22;37929;53.218;6.548;2022-12-26T08:19:43;8.90;99.90
51902;DHT22;37929;53.218;6.548;2022-12-26T08:22:09;8.90;99.90
51902;DHT22;37929;53.218;6.548;2022-12-26T08:24:35;8.90;99.90
51902;DHT22;37929;53.218;6.548;2022-12-26T08:27:00;8.90;99.90
51902;DHT22;37929;53.218;6.548;2022-12-26T08:29:26;9.20;99.90
51902;DHT22;37929;53.218;6.548;2022-12-26T08:31:52;8.90;99.90
51902;DHT22;37929;53.218;6.548;2022-12-26T08:34:18;8.90;99.90
51902;DHT22;37929;53.218;6.548;2022-12-26T08:36:43;8.90;99.90
51902;DHT22;37929;53.218;6.548;2022-12-26T08:39:09;9.00;99.90
51902;DHT22;37929;53.218;6.548;2022-12-26T08:41:35;9.00;99.90
51902;DHT22;37929;53.218;6.548;2022-12-26T08:44:01;9.00;99.90
51902;DHT22;37929;53.218;6.548;2022-12-26T08:46:26;9.00;99.90
51902;DHT22;37929;53.218;6.548;2022-12-26T08:48:52;9.00;99.90
51902;DHT22;37929;53.218;6.548;2022-12-26T08:51:22;9.60;99.90
51902;DHT22;37929;53.218;6.548;2022-12-26T08:53:49;9.00;99.90
51902;DHT22;37929;53.218;6.548;2022-12-26T08:56:21;9.00;99.90
51902;DHT22;37929;53.218;6.548;2022-12-26T08:58:47;9.00;99.90
51902;DHT22;37929;53.218;6.548;2022-12-26T09:03:40;8.90;99.90
51902;DHT22;37929;53.218;6.548;2022-12-26T09:06:07;8.90;99.90
51902;DHT22;37929;53.218;6.548;2022-12-26T09:08:34;8.90;99.90
51902;DHT22;37929;53.218;6.548;2022-12-26T09:11:09;8.80;99.90
51902;DHT22;37929;53.218;6.548;2022-12-26T09:13:36;8.80;99.90
51902;DHT22;37929;53.218;6.548;2022-12-26T09:16:17;8.80;99.90
51902;DHT22;37929;53.218;6.548;2022-12-26T09:18:44;8.80;99.90
51902;DHT22;37929;53.218;6.548;2022-12-26T09:21:11;8.80;99.90
51902;DHT22;37929;53.218;6.548;2022-12-26T09:23:38;8.80;99.90
51902;DHT22;37929;53.218;6.548;2022-12-26T09:26:12;8.80;99.90
51902;DHT22;37929;53.218;6.548;2022-12-26T09:28:39;8.80;99.90
51902;DHT22;37929;53.218;6.548;2022-12-26T09:31:10;8.80;99.90
51902;DHT22;37929;53.218;6.548;2022-12-26T09:33:36;8.90;99.90
51902;DHT22;37929;53.218;6.548;2022-12-26T09:36:11;8.80;99.90
51902;DHT22;37929;53.218;6.548;2022-12-26T09:38:37;8.80;99.90
51902;DHT22;37929;53.218;6.548;2022-12-26T09:49:30;8.80;99.90
51902;DHT22;37929;53.218;6.548;2022-12-26T09:52:03;8.80;99.90
51902;DHT22;37929;53.218;6.548;2022-12-26T09:54:37;8.70;99.90
51902;DHT22;37929;53.218;6.548;2022-12-26T09:57:14;8.60;99.90
51902;DHT22;37929;53.218;6.548;2022-12-26T10:00:02;8.40;99.90
51902;DHT22;37929;53.218;6.548;2022-12-26T10:02:30;8.20;99.90
51902;DHT22;37929;53.218;6.548;2022-12-26T10:04:56;8.00;99.90
51902;DHT22;37929;53.218;6.548;2022-12-26T10:07:45;7.90;99.90
51902;DHT22;37929;53.218;6.548;2022-12-26T10:10:22;7.80;99.90
51902;DHT22;37929;53.218;6.548;2022-12-26T10:13:07;7.80;99.90
51902;DHT22;37929;53.218;6.548;2022-12-26T10:15:47;7.70;99.90
51902;DHT22;37929;53.218;6.548;2022-12-26T10:23:45;7.50;99.90
51902;DHT22;37929;53.218;6.548;2022-12-26T10:28:46;7.60;99.90
51902;DHT22;37929;53.218;6.548;2022-12-26T10:31:44;7.60;99.90
51902;DHT22;37929;53.218;6.548;2022-12-26T10:34:27;7.60;99.90
51902;DHT22;37929;53.218;6.548;2022-12-26T10:36:59;7.60;99.90
51902;DHT22;37929;53.218;6.548;2022-12-26T10:42:36;7.60;99.90
51902;DHT22;37929;53.218;6.548;2022-12-26T10:45:15;7.60;99.90
51902;DHT22;37929;53.218;6.548;2022-12-26T10:47:48;7.50;99.90
51902;DHT22;37929;53.218;6.548;2022-12-26T10:50:23;7.50;99.90
51902;DHT22;37929;53.218;6.548;2022-12-26T10:52:49;7.40;99.90
51902;DHT22;37929;53.218;6.548;2022-12-26T10:55:18;7.40;99.90
51902;DHT22;37929;53.218;6.548;2022-12-26T10:57:47;7.40;99.90
51902;DHT22;37929;53.218;6.548;2022-12-26T11:00:19;7.80;99.90
51902;DHT22;37929;53.218;6.548;2022-12-26T11:02:45;7.20;99.90
51902;DHT22;37929;53.218;6.548;2022-12-26T11:05:25;7.20;99.90
51902;DHT22;37929;53.218;6.548;2022-12-26T11:07:54;7.10;99.90
51902;DHT22;37929;53.218;6.548;2022-12-26T11:10:23;7.10;99.90
51902;DHT22;37929;53.218;6.548;2022-12-26T11:12:56;7.10;99.90
51902;DHT22;37929;53.218;6.548;2022-12-26T11:15:50;7.00;99.90
51902;DHT22;37929;53.218;6.548;2022-12-26T11:18:21;7.00;99.90
51902;DHT22;37929;53.218;6.548;2022-12-26T11:20:49;6.90;99.90
51902;DHT22;37929;53.218;6.548;2022-12-26T11:23:25;7.00;99.90
51902;DHT22;37929;53.218;6.548;2022-12-26T11:25:56;6.90;99.90
51902;DHT22;37929;53.218;6.548;2022-12-26T11:28:26;6.90;99.90
51902;DHT22;37929;53.218;6.548;2022-12-26T11:30:52;6.90;99.90
51902;DHT22;37929;53.218;6.548;2022-12-26T11:38:29;6.90;99.90
51902;DHT22;37929;53.218;6.548;2022-12-26T11:41:08;6.90;99.90
51902;DHT22;37929;53.218;6.548;2022-12-26T11:52:00;6.80;99.90
51902;DHT22;37929;53.218;6.548;2022-12-26T11:54:47;6.80;99.90
51902;DHT22;37929;53.218;6.548;2022-12-26T11:57:21;6.80;99.90
51902;DHT22;37929;53.218;6.548;2022-12-26T11:59:48;6.80;99.90
51902;DHT22;37929;53.218;6.548;2022-12-26T12:04:40;6.80;99.90
51902;DHT22;37929;53.218;6.548;2022-12-26T12:10:33;6.90;99.90
51902;DHT22;37929;53.218;6.548;2022-12-26T12:18:42;6.90;99.90
51902;DHT22;37929;53.218;6.548;2022-12-26T12:26:45;7.00;99.90
51902;DHT22;37929;53.218;6.548;2022-12-26T12:35:25;7.00;99.90
51902;DHT22;37929;53.218;6.548;2022-12-26T12:41:03;7.00;99.90
51902;DHT22;37929;53.218;6.548;2022-12-26T13:00:25;7.10;99.90
51902;DHT22;37929;53.218;6.548;2022-12-26T13:08:52;7.00;99.90
51902;DHT22;37929;53.218;6.548;2022-12-26T13:11:25;7.00;99.90
51902;DHT22;37929;53.218;6.548;2022-12-26T13:13:59;7.00;99.90
51902;DHT22;37929;53.218;6.548;2022-12-26T13:16:30;7.00;99.90
51902;DHT22;37929;53.218;6.548;2022-12-26T13:19:01;7.00;99.90
51902;DHT22;37929;53.218;6.548;2022-12-26T13:21:31;7.00;99.90
51902;DHT22;37929;53.218;6.548;2022-12-26T13:29:38;7.00;99.90
51902;DHT22;37929;53.218;6.548;2022-12-26T13:32:16;7.00;99.90
51902;DHT22;37929;53.218;6.548;2022-12-26T13:34:44;7.00;99.90
51902;DHT22;37929;53.218;6.548;2022-12-26T13:40:20;7.10;99.90
51902;DHT22;37929;53.218;6.548;2022-12-26T13:42:59;7.10;99.90
51902;DHT22;37929;53.218;6.548;2022-12-26T13:45:53;7.20;99.90
51902;DHT22;37929;53.218;6.548;2022-12-26T13:48:45;7.20;99.90
51902;DHT22;37929;53.218;6.548;2022-12-26T13:54:09;7.10;99.90
51902;DHT22;37929;53.218;6.548;2022-12-26T13:59:19;7.00;99.90
51902;DHT22;37929;53.218;6.548;2022-12-26T14:02:12;6.90;99.90
51902;DHT22;37929;53.218;6.548;2022-12-26T14:07:44;6.80;99.90
51902;DHT22;37929;53.218;6.548;2022-12-26T14:13:39;6.80;99.90
51902;DHT22;37929;53.218;6.548;2022-12-26T14:16:27;6.90;99.90
51902;DHT22;37929;53.218;6.548;2022-12-26T14:27:22;6.90;99.90
51902;DHT22;37929;53.218;6.548;2022-12-26T14:32:56;6.80;99.90
51902;DHT22;37929;53.218;6.548;2022-12-26T14:35:56;6.80;99.90
51902;DHT22;37929;53.218;6.548;2022-12-26T14:41:20;6.70;99.90
51902;DHT22;37929;53.218;6.548;2022-12-26T14:49:26;6.50;99.90
51902;DHT22;37929;53.218;6.548;2022-12-26T14:54:53;6.40;99.90
51902;DHT22;37929;53.218;6.548;2022-12-26T14:57:41;6.40;99.90
51902;DHT22;37929;53.218;6.548;2022-12-26T15:05:47;6.30;99.90
51902;DHT22;37929;53.218;6.548;2022-12-26T15:08:36;6.30;99.90
51902;DHT22;37929;53.218;6.548;2022-12-26T15:14:19;6.20;99.90
51902;DHT22;37929;53.218;6.548;2022-12-26T15:17:02;6.20;99.90
51902;DHT22;37929;53.218;6.548;2022-12-26T15:28:37;6.00;99.90
51902;DHT22;37929;53.218;6.548;2022-12-26T15:31:26;5.90;99.90
51902;DHT22;37929;53.218;6.548;2022-12-26T15:40:21;5.90;99.90
51902;DHT22;37929;53.218;6.548;2022-12-26T15:45:42;5.70;99.90
51902;DHT22;37929;53.218;6.548;2022-12-26T15:51:09;5.60;99.90
51902;DHT22;37929;53.218;6.548;2022-12-26T15:57:52;5.50;99.90
51902;DHT22;37929;53.218;6.548;2022-12-26T16:05:33;5.40;99.90
51902;DHT22;37929;53.218;6.548;2022-12-26T16:10:46;5.40;99.90
51902;DHT22;37929;53.218;6.548;2022-12-26T16:15:57;5.30;99.90
51902;DHT22;37929;53.218;6.548;2022-12-26T16:18:29;5.30;99.90
51902;DHT22;37929;53.218;6.548;2022-12-26T16:21:02;5.20;99.90
51902;DHT22;37929;53.218;6.548;2022-12-26T16:23:50;5.30;99.90
51902;DHT22;37929;53.218;6.548;2022-12-26T16:26:24;5.20;99.90
51902;DHT22;37929;53.218;6.548;2022-12-26T16:28:51;5.20;99.90
51902;DHT22;37929;53.218;6.548;2022-12-26T16:31:28;5.20;99.90
51902;DHT22;37929;53.218;6.548;2022-12-26T16:33:56;5.20;99.90
51902;DHT22;37929;53.218;6.548;2022-12-26T16:36:28;5.10;99.90
51902;DHT22;37929;53.218;6.548;2022-12-26T16:38:54;5.10;99.90
51902;DHT22;37929;53.218;6.548;2022-12-26T16:41:25;5.10;99.90
51902;DHT22;37929;53.218;6.548;2022-12-26T16:43:53;5.10;99.90
51902;DHT22;37929;53.218;6.548;2022-12-26T16:46:25;5.10;99.90
51902;DHT22;37929;53.218;6.548;2022-12-26T16:48:58;5.00;99.90
51902;DHT22;37929;53.218;6.548;2022-12-26T16:51:46;5.00;99.90
51902;DHT22;37929;53.218;6.548;2022-12-26T17:02:02;5.00;99.90
51902;DHT22;37929;53.218;6.548;2022-12-26T17:04:29;5.00;99.90
51902;DHT22;37929;53.218;6.548;2022-12-26T17:06:56;5.00;99.90
51902;DHT22;37929;53.218;6.548;2022-12-26T17:09:26;5.00;99.90
51902;DHT22;37929;53.218;6.548;2022-12-26T17:12:04;5.00;99.90
51902;DHT22;37929;53.218;6.548;2022-12-26T17:14:36;5.00;99.90
51902;DHT22;37929;53.218;6.548;2022-12-26T17:19:31;5.00;99.90
51902;DHT22;37929;53.218;6.548;2022-12-26T17:27:43;4.90;99.90
51902;DHT22;37929;53.218;6.548;2022-12-26T17:32:53;4.90;99.90
51902;DHT22;37929;53.218;6.548;2022-12-26T17:35:22;4.90;99.90
51902;DHT22;37929;53.218;6.548;2022-12-26T17:37:54;4.90;99.90
51902;DHT22;37929;53.218;6.548;2022-12-26T17:45:39;4.80;99.90
51902;DHT22;37929;53.218;6.548;2022-12-26T17:48:06;4.80;99.90
51902;DHT22;37929;53.218;6.548;2022-12-26T17:50:34;4.70;99.90
51902;DHT22;37929;53.218;6.548;2022-12-26T17:55:44;4.70;99.90
51902;DHT22;37929;53.218;6.548;2022-12-26T17:58:13;4.70;99.90
51902;DHT22;37929;53.218;6.548;2022-12-26T18:00:41;4.70;99.90
51902;DHT22;37929;53.218;6.548;2022-12-26T18:03:07;4.70;99.90
51902;DHT22;37929;53.218;6.548;2022-12-26T18:05:33;4.60;99.90
51902;DHT22;37929;53.218;6.548;2022-12-26T18:08:00;5.20;99.90
51902;DHT22;37929;53.218;6.548;2022-12-26T18:10:29;4.50;99.90
51902;DHT22;37929;53.218;6.548;2022-12-26T18:12:56;4.50;99.90
51902;DHT22;37929;53.218;6.548;2022-12-26T18:15:24;4.40;99.90
51902;DHT22;37929;53.218;6.548;2022-12-26T18:17:52;4.40;99.90
51902;DHT22;37929;53.218;6.548;2022-12-26T18:20:23;4.40;99.90
51902;DHT22;37929;53.218;6.548;2022-12-26T18:22:49;4.30;99.90
51902;DHT22;37929;53.218;6.548;2022-12-26T18:25:17;4.30;99.90
51902;DHT22;37929;53.218;6.548;2022-12-26T18:27:44;4.30;99.90
51902;DHT22;37929;53.218;6.548;2022-12-26T18:30:19;4.30;99.90
51902;DHT22;37929;53.218;6.548;2022-12-26T18:32:47;4.30;99.90
51902;DHT22;37929;53.218;6.548;2022-12-26T18:35:13;4.30;99.90
51902;DHT22;37929;53.218;6.548;2022-12-26T18:37:40;4.20;99.90
51902;DHT22;37929;53.218;6.548;2022-12-26T18:40:27;4.20;99.90
51902;DHT22;37929;53.218;6.548;2022-12-26T18:42:54;4.20;99.90
51902;DHT22;37929;53.218;6.548;2022-12-26T18:45:19;4.20;99.90
51902;DHT22;37929;53.218;6.548;2022-12-26T18:47:45;4.20;99.90
51902;DHT22;37929;53.218;6.548;2022-12-26T18:50:13;4.20;99.90
51902;DHT22;37929;53.218;6.548;2022-12-26T18:52:40;4.20;99.90
51902;DHT22;37929;53.218;6.548;2022-12-26T18:55:07;4.20;99.90
51902;DHT22;37929;53.218;6.548;2022-12-26T18:57:33;4.20;99.90
51902;DHT22;37929;53.218;6.548;2022-12-26T18:59:59;4.80;99.90
51902;DHT22;37929;53.218;6.548;2022-12-26T19:02:26;4.30;99.90
51902;DHT22;37929;53.218;6.548;2022-12-26T19:04:51;4.20;99.90
51902;DHT22;37929;53.218;6.548;2022-12-26T19:07:18;4.40;99.90
51902;DHT22;37929;53.218;6.548;2022-12-26T19:09:49;4.20;99.90
51902;DHT22;37929;53.218;6.548;2022-12-26T19:12:16;4.20;99.90
51902;DHT22;37929;53.218;6.548;2022-12-26T19:14:45;4.30;99.90
51902;DHT22;37929;53.218;6.548;2022-12-26T19:17:11;4.30;99.90
51902;DHT22;37929;53.218;6.548;2022-12-26T19:19:37;4.30;99.90
51902;DHT22;37929;53.218;6.548;2022-12-26T19:22:03;4.30;99.90
51902;DHT22;37929;53.218;6.548;2022-12-26T19:24:29;4.60;99.90
51902;DHT22;37929;53.218;6.548;2022-12-26T19:26:54;4.40;99.90
51902;DHT22;37929;53.218;6.548;2022-12-26T19:29:20;4.30;99.90
51902;DHT22;37929;53.218;6.548;2022-12-26T19:31:46;4.30;99.90
51902;DHT22;37929;53.218;6.548;2022-12-26T19:34:12;4.30;99.90
51902;DHT22;37929;53.218;6.548;2022-12-26T19:36:38;4.20;99.90
51902;DHT22;37929;53.218;6.548;2022-12-26T19:39:04;4.20;99.90
51902;DHT22;37929;53.218;6.548;2022-12-26T19:41:30;4.20;99.90
51902;DHT22;37929;53.218;6.548;2022-12-26T19:43:57;4.20;99.90
51902;DHT22;37929;53.218;6.548;2022-12-26T19:46:24;4.20;99.90
51902;DHT22;37929;53.218;6.548;2022-12-26T19:48:50;4.10;99.90
51902;DHT22;37929;53.218;6.548;2022-12-26T19:51:16;4.10;99.90
51902;DHT22;37929;53.218;6.548;2022-12-26T19:53:44;4.10;99.90
51902;DHT22;37929;53.218;6.548;2022-12-26T19:56:13;4.30;99.90
51902;DHT22;37929;53.218;6.548;2022-12-26T19:58:40;4.10;99.90
51902;DHT22;37929;53.218;6.548;2022-12-26T20:03:35;4.50;99.90
51902;DHT22;37929;53.218;6.548;2022-12-26T20:06:18;4.10;99.90
51902;DHT22;37929;53.218;6.548;2022-12-26T20:08:46;4.10;99.90
51902;DHT22;37929;53.218;6.548;2022-12-26T20:11:20;4.10;99.90
51902;DHT22;37929;53.218;6.548;2022-12-26T20:13:47;4.10;99.90
51902;DHT22;37929;53.218;6.548;2022-12-26T20:16:16;4.00;99.90
51902;DHT22;37929;53.218;6.548;2022-12-26T20:18:42;4.10;99.90
51902;DHT22;37929;53.218;6.548;2022-12-26T20:21:07;4.10;99.90
51902;DHT22;37929;53.218;6.548;2022-12-26T20:23:34;4.00;99.90
51902;DHT22;37929;53.218;6.548;2022-12-26T20:26:02;4.00;99.90